createdAt,value
2018-06-03T00:02:20.245Z,6.40
2018-06-03T00:04:48.553Z,5.87
2018-06-03T00:07:16.870Z,6.67
2018-06-03T00:09:45.177Z,5.45
2018-06-03T00:12:13.517Z,6.70
2018-06-03T00:14:41.877Z,5.85
2018-06-03T00:17:10.504Z,5.40
2018-06-03T00:19:38.813Z,6.53
2018-06-03T00:22:09.370Z,6.37
2018-06-03T00:24:37.674Z,5.83
2018-06-03T00:27:05.993Z,6.50
2018-06-03T00:29:34.301Z,5.87
2018-06-03T00:32:02.622Z,6.30
2018-06-03T00:34:31.073Z,5.25
2018-06-03T00:36:59.405Z,6.10
2018-06-03T00:39:27.713Z,6.20
2018-06-03T00:41:56.045Z,6.67
2018-06-03T00:44:24.362Z,5.35
2018-06-03T00:46:52.669Z,6.50
2018-06-03T00:49:20.992Z,6.67
2018-06-03T00:51:49.392Z,6.50
2018-06-03T00:54:17.706Z,6.15
2018-06-03T00:56:57.248Z,6.33
2018-06-03T00:59:25.574Z,6.22
2018-06-03T01:01:53.873Z,5.40
2018-06-03T01:04:22.216Z,5.95
2018-06-03T01:06:50.578Z,5.78
2018-06-03T01:09:18.909Z,5.70
2018-06-03T01:11:47.344Z,5.72
2018-06-03T01:14:15.668Z,6.35
2018-06-03T01:16:43.990Z,5.80
2018-06-03T01:19:12.337Z,5.40
2018-06-03T01:21:40.652Z,5.58
2018-06-03T01:24:08.976Z,5.40
2018-06-03T01:26:37.285Z,6.20
2018-06-03T01:29:05.661Z,5.10
2018-06-03T01:31:33.983Z,5.95
2018-06-03T01:34:02.316Z,6.22
2018-06-03T01:36:30.641Z,5.78
2018-06-03T01:38:59.056Z,5.53
2018-06-03T01:41:27.373Z,6.10
2018-06-03T01:43:55.752Z,6.03
2018-06-03T01:46:24.075Z,6.17
2018-06-03T01:48:52.413Z,5.80
2018-06-03T01:51:20.729Z,5.70
2018-06-03T01:53:49.053Z,5.78
2018-06-03T01:56:17.374Z,5.85
2018-06-03T01:58:45.689Z,6.60
2018-06-03T02:01:14.057Z,6.08
2018-06-03T02:03:42.376Z,7.60
2018-06-03T02:06:10.712Z,6.45
2018-06-03T02:08:39.037Z,6.15
2018-06-03T02:11:07.381Z,6.45
2018-06-03T02:13:35.738Z,6.50
2018-06-03T02:16:04.079Z,6.97
2018-06-03T02:18:32.388Z,7.65
2018-06-03T02:21:00.730Z,8.05
2018-06-03T02:23:29.049Z,7.37
2018-06-03T02:25:57.424Z,7.37
2018-06-03T02:28:25.745Z,7.83
2018-06-03T02:30:54.069Z,6.83
2018-06-03T02:33:22.380Z,6.53
2018-06-03T02:35:50.711Z,7.22
2018-06-03T02:38:19.029Z,7.28
2018-06-03T02:40:47.383Z,7.05
2018-06-03T02:43:15.719Z,5.60
2018-06-03T02:45:44.053Z,6.95
2018-06-03T02:48:12.470Z,7.20
2018-06-03T02:50:40.793Z,7.28
2018-06-03T02:53:09.235Z,7.22
2018-06-03T02:55:37.571Z,6.22
2018-06-03T02:58:06.288Z,6.08
2018-06-03T03:00:34.608Z,5.83
2018-06-03T03:03:02.933Z,6.45
2018-06-03T03:05:31.270Z,6.12
2018-06-03T03:07:59.576Z,7.10
2018-06-03T03:10:27.930Z,6.15
2018-06-03T03:12:56.341Z,5.75
2018-06-03T03:15:24.692Z,5.60
2018-06-03T03:17:53.013Z,6.12
2018-06-03T03:20:21.349Z,6.30
2018-06-03T03:22:49.832Z,6.90
2018-06-03T03:25:18.145Z,6.75
2018-06-03T03:27:46.541Z,6.47
2018-06-03T03:30:14.877Z,5.70
2018-06-03T03:32:43.220Z,6.03
2018-06-03T03:35:11.576Z,6.53
2018-06-03T03:37:39.903Z,5.70
2018-06-03T03:40:08.225Z,6.40
2018-06-03T03:42:36.564Z,7.05
2018-06-03T03:45:04.878Z,6.10
2018-06-03T03:47:33.213Z,6.00
2018-06-03T03:50:01.517Z,6.50
2018-06-03T03:52:29.937Z,6.05
2018-06-03T03:54:58.255Z,6.78
2018-06-03T03:57:26.917Z,5.53
2018-06-03T03:59:55.245Z,6.47
2018-06-03T04:02:23.574Z,6.45
2018-06-03T04:04:51.900Z,6.40
2018-06-03T04:07:20.233Z,5.97
2018-06-03T04:09:48.609Z,7.17
2018-06-03T04:12:16.944Z,5.87
2018-06-03T04:14:45.265Z,6.90
2018-06-03T04:17:13.637Z,6.87
2018-06-03T04:19:41.956Z,7.03
2018-06-03T04:22:10.300Z,7.75
2018-06-03T04:24:38.692Z,6.10
2018-06-03T04:27:07.017Z,7.55
2018-06-03T04:29:35.388Z,7.55
2018-06-03T04:32:03.729Z,6.80
2018-06-03T04:34:32.040Z,7.28
2018-06-03T04:37:00.375Z,7.55
2018-06-03T04:39:28.688Z,6.65
2018-06-03T04:41:57.115Z,6.10
2018-06-03T04:44:25.452Z,6.35
2018-06-03T04:46:53.768Z,7.12
2018-06-03T04:49:22.096Z,6.85
2018-06-03T04:51:50.392Z,6.92
2018-06-03T04:54:18.729Z,6.90
2018-06-03T04:56:47.073Z,7.08
2018-06-03T04:59:15.420Z,6.03
2018-06-03T05:01:43.746Z,7.00
2018-06-03T05:04:12.090Z,7.40
2018-06-03T05:06:40.412Z,5.87
2018-06-03T05:09:08.741Z,7.00
2018-06-03T05:11:37.149Z,6.75
2018-06-03T05:14:05.536Z,7.12
2018-06-03T05:16:33.846Z,5.72
2018-06-03T05:19:02.176Z,7.40
2018-06-03T05:21:30.682Z,6.42
2018-06-03T05:23:59.021Z,7.05
2018-06-03T05:26:27.330Z,6.90
2018-06-03T05:28:55.673Z,6.87
2018-06-03T05:31:24.085Z,7.15
2018-06-03T05:33:52.433Z,6.80
2018-06-03T05:36:20.744Z,6.22
2018-06-03T05:38:49.073Z,7.28
2018-06-03T05:41:17.717Z,7.67
2018-06-03T05:43:46.067Z,7.45
2018-06-03T05:46:14.417Z,7.20
2018-06-03T05:48:42.790Z,7.78
2018-06-03T05:51:11.096Z,7.35
2018-06-03T05:53:39.442Z,8.05
2018-06-03T05:56:07.997Z,7.33
2018-06-03T05:58:36.362Z,7.70
2018-06-03T06:01:04.690Z,7.80
2018-06-03T06:03:33.079Z,7.67
2018-06-03T06:06:01.662Z,6.20
2018-06-03T06:08:30.210Z,7.65
2018-06-03T06:10:58.684Z,6.95
2018-06-03T06:13:27.059Z,6.95
2018-06-03T06:15:55.481Z,7.00
2018-06-03T06:18:23.809Z,7.30
2018-06-03T06:20:52.150Z,7.50
2018-06-03T06:23:20.470Z,7.08
2018-06-03T06:25:48.817Z,8.15
2018-06-03T06:28:17.124Z,6.97
2018-06-03T06:30:45.476Z,7.60
2018-06-03T06:33:13.793Z,7.37
2018-06-03T06:35:42.137Z,7.05
2018-06-03T06:38:10.465Z,8.05
2018-06-03T06:40:38.809Z,7.17
2018-06-03T06:43:07.137Z,7.92
2018-06-03T06:45:35.474Z,8.33
2018-06-03T06:48:03.820Z,9.25
2018-06-03T06:50:32.184Z,7.53
2018-06-03T06:53:00.533Z,7.90
2018-06-03T06:55:28.912Z,7.62
2018-06-03T06:57:57.216Z,8.00
2018-06-03T07:00:25.624Z,7.20
2018-06-03T07:02:54.062Z,8.75
2018-06-03T07:05:22.406Z,8.00
2018-06-03T07:07:50.718Z,6.95
2018-06-03T07:10:19.073Z,7.60
2018-06-03T07:12:47.412Z,6.62
2018-06-03T07:15:15.757Z,7.90
2018-06-03T07:17:44.089Z,7.03
2018-06-03T07:20:12.441Z,7.95
2018-06-03T07:22:40.833Z,6.25
2018-06-03T07:25:09.181Z,7.28
2018-06-03T07:27:37.609Z,7.87
2018-06-03T07:30:05.977Z,6.53
2018-06-03T07:32:34.305Z,6.50
2018-06-03T07:35:02.639Z,6.60
2018-06-03T07:37:30.989Z,7.12
2018-06-03T07:39:59.321Z,6.90
2018-06-03T07:42:27.649Z,6.90
2018-06-03T07:44:56.022Z,6.17
2018-06-03T07:47:24.361Z,7.03
2018-06-03T07:49:52.677Z,6.40
2018-06-03T07:52:21.129Z,5.83
2018-06-03T07:54:49.450Z,4.77
2018-06-03T07:57:18.012Z,6.17
2018-06-03T07:59:46.280Z,6.30
2018-06-03T08:02:14.621Z,5.37
2018-06-03T08:04:42.942Z,5.97
2018-06-03T08:07:11.271Z,5.57
2018-06-03T08:09:39.673Z,5.50
2018-06-03T08:12:08.109Z,5.30
2018-06-03T08:14:36.564Z,5.60
2018-06-03T08:17:04.957Z,4.70
2018-06-03T08:19:33.258Z,5.30
2018-06-03T08:22:01.597Z,4.93
2018-06-03T08:24:29.900Z,5.80
2018-06-03T08:26:58.300Z,5.43
2018-06-03T08:29:26.740Z,5.27
2018-06-03T08:31:55.088Z,4.83
2018-06-03T08:34:24.498Z,4.60
2018-06-03T08:36:52.838Z,4.57
2018-06-03T08:39:21.244Z,4.77
2018-06-03T08:41:49.573Z,4.23
2018-06-03T08:44:17.889Z,4.23
2018-06-03T08:46:46.221Z,4.80
2018-06-03T08:49:15.805Z,3.63
2018-06-03T08:51:44.120Z,4.27
2018-06-03T08:54:12.473Z,4.33
2018-06-03T08:56:40.777Z,4.73
2018-06-03T08:59:09.232Z,5.17
2018-06-03T09:01:37.890Z,4.30
2018-06-03T09:04:06.273Z,5.37
2018-06-03T09:06:34.636Z,4.53
2018-06-03T09:09:03.073Z,5.67
2018-06-03T09:11:31.532Z,5.93
2018-06-03T09:13:59.882Z,5.93
2018-06-03T09:16:28.237Z,5.27
2018-06-03T09:18:56.581Z,5.13
2018-06-03T09:21:24.885Z,4.70
2018-06-03T09:23:53.340Z,4.73
2018-06-03T09:26:21.644Z,5.57
2018-06-03T09:28:49.701Z,5.03
2018-06-03T09:31:18.051Z,5.83
2018-06-03T09:33:46.549Z,5.43
2018-06-03T09:36:14.949Z,5.63
2018-06-03T09:38:43.369Z,5.03
2018-06-03T09:41:12.027Z,5.90
2018-06-03T09:43:40.625Z,5.10
2018-06-03T09:46:09.149Z,5.90
2018-06-03T09:48:37.496Z,5.40
2018-06-03T09:51:05.957Z,5.30
2018-06-03T09:53:34.358Z,6.53
2018-06-03T09:56:02.692Z,4.77
2018-06-03T09:58:31.109Z,5.60
2018-06-03T10:00:59.464Z,5.60
2018-06-03T10:03:28.028Z,5.50
2018-06-03T10:05:56.366Z,5.00
2018-06-03T10:08:24.678Z,6.13
2018-06-03T10:10:53.011Z,4.73
2018-06-03T10:13:21.305Z,4.70
2018-06-03T10:15:49.781Z,5.00
2018-06-03T10:18:18.337Z,5.80
2018-06-03T10:20:46.661Z,5.30
2018-06-03T10:23:14.985Z,5.53
2018-06-03T10:25:43.364Z,5.00
2018-06-03T10:28:11.713Z,9.50
2018-06-03T10:30:40.041Z,5.00
2018-06-03T10:33:08.355Z,5.00
2018-06-03T10:35:36.673Z,4.90
2018-06-03T10:38:05.121Z,3.93
2018-06-03T10:40:33.456Z,4.60
2018-06-03T10:43:01.790Z,4.97
2018-06-03T10:45:30.121Z,4.70
2018-06-03T10:47:58.430Z,4.50
2018-06-03T10:50:27.078Z,4.73
2018-06-03T10:52:55.761Z,6.27
2018-06-03T10:55:24.440Z,4.20
2018-06-03T10:57:53.186Z,4.80
2018-06-03T11:00:22.028Z,3.93
2018-06-03T11:02:50.838Z,4.47
2018-06-03T11:05:19.508Z,4.40
2018-06-03T11:07:47.829Z,4.73
2018-06-03T11:10:16.177Z,4.10
2018-06-03T11:12:44.505Z,4.00
2018-06-03T11:15:12.823Z,4.60
2018-06-03T11:17:41.140Z,5.40
2018-06-03T11:20:09.478Z,4.90
2018-06-03T11:22:37.787Z,5.07
2018-06-03T11:25:06.089Z,5.10
2018-06-03T11:27:34.420Z,4.73
2018-06-03T11:30:02.952Z,4.97
2018-06-03T11:32:31.325Z,5.00
2018-06-03T11:34:59.625Z,4.30
2018-06-03T11:37:27.941Z,4.70
2018-06-03T11:39:56.250Z,4.67
2018-06-03T11:42:24.661Z,5.10
2018-06-03T11:44:52.965Z,4.80
2018-06-03T11:47:21.289Z,4.10
2018-06-03T11:49:49.598Z,5.20
2018-06-03T11:52:17.931Z,4.37
2018-06-03T11:54:46.246Z,3.90
2018-06-03T11:57:14.568Z,3.50
2018-06-03T11:59:43.722Z,3.90
2018-06-03T12:02:13.361Z,3.60
2018-06-03T12:04:41.679Z,3.60
2018-06-03T12:07:10.005Z,4.70
2018-06-03T12:09:38.349Z,4.00
2018-06-03T12:12:06.678Z,4.70
2018-06-03T12:14:34.984Z,4.17
2018-06-03T12:17:03.314Z,4.43
2018-06-03T12:19:31.625Z,3.80
2018-06-03T12:21:59.684Z,4.60
2018-06-03T12:24:28.002Z,3.73
2018-06-03T12:26:56.341Z,3.90
2018-06-03T12:29:24.672Z,3.83
2018-06-03T12:31:53.021Z,3.63
2018-06-03T12:34:21.374Z,3.80
2018-06-03T12:36:49.799Z,3.47
2018-06-03T12:39:18.154Z,4.10
2018-06-03T12:41:46.505Z,4.33
2018-06-03T12:44:14.861Z,3.97
2018-06-03T12:46:43.292Z,4.30
2018-06-03T12:49:11.624Z,4.00
2018-06-03T12:51:40.124Z,4.50
2018-06-03T12:54:08.537Z,3.93
2018-06-03T12:56:36.979Z,4.03
2018-06-03T12:59:05.711Z,3.53
2018-06-03T13:01:34.201Z,3.50
2018-06-03T13:04:02.878Z,4.10
2018-06-03T13:06:31.286Z,4.30
2018-06-03T13:08:59.637Z,4.17
2018-06-03T13:11:27.974Z,3.80
2018-06-03T13:13:56.378Z,3.63
2018-06-03T13:16:24.729Z,4.00
2018-06-03T13:18:53.082Z,4.13
2018-06-03T13:21:21.377Z,3.90
2018-06-03T13:23:49.700Z,3.53
2018-06-03T13:26:17.737Z,4.17
2018-06-03T13:28:46.069Z,4.20
2018-06-03T13:31:14.387Z,3.40
2018-06-03T13:33:42.796Z,3.93
2018-06-03T13:36:11.110Z,3.50
2018-06-03T13:38:39.437Z,3.70
2018-06-03T13:41:07.749Z,3.87
2018-06-03T13:43:36.075Z,4.00
2018-06-03T13:46:04.389Z,3.80
2018-06-03T13:48:32.725Z,3.80
2018-06-03T13:51:01.101Z,3.70
2018-06-03T13:53:29.488Z,4.23
2018-06-03T13:55:58.782Z,3.50
2018-06-03T13:58:27.113Z,3.40
2018-06-03T14:00:55.542Z,3.43
2018-06-03T14:03:23.856Z,3.60
2018-06-03T14:05:52.161Z,4.10
2018-06-03T14:08:20.501Z,3.97
2018-06-03T14:10:48.827Z,3.63
2018-06-03T14:13:17.137Z,3.70
2018-06-03T14:15:45.548Z,4.20
2018-06-03T14:18:13.857Z,3.77
2018-06-03T14:20:42.116Z,3.47
2018-06-03T14:23:10.431Z,2.97
2018-06-03T14:25:38.772Z,2.80
2018-06-03T14:28:07.072Z,3.53
2018-06-03T14:30:35.420Z,3.80
2018-06-03T14:33:03.959Z,3.73
2018-06-03T14:35:32.306Z,3.40
2018-06-03T14:38:00.664Z,3.50
2018-06-03T14:40:29.008Z,3.33
2018-06-03T14:42:57.317Z,4.03
2018-06-03T14:45:25.650Z,2.93
2018-06-03T14:47:55.418Z,2.80
2018-06-03T14:50:24.544Z,3.10
2018-06-03T14:52:54.077Z,3.50
2018-06-03T14:55:23.112Z,3.20
2018-06-03T14:57:52.819Z,3.90
2018-06-03T15:00:26.891Z,4.10
2018-06-03T15:02:55.928Z,3.07
2018-06-03T15:05:24.262Z,4.10
2018-06-03T15:07:52.569Z,3.93
2018-06-03T15:10:20.917Z,3.90
2018-06-03T15:12:49.230Z,3.40
2018-06-03T15:15:17.565Z,3.50
2018-06-03T15:17:45.883Z,3.93
2018-06-03T15:20:14.266Z,4.93
2018-06-03T15:22:42.570Z,4.90
2018-06-03T15:25:10.908Z,7.33
2018-06-03T15:27:39.225Z,5.57
2018-06-03T15:30:07.561Z,6.33
2018-06-03T15:32:35.867Z,4.00
2018-06-03T15:35:04.218Z,4.43
2018-06-03T15:37:32.532Z,3.77
2018-06-03T15:40:00.979Z,3.43
2018-06-03T15:42:29.293Z,4.10
2018-06-03T15:44:57.600Z,3.20
2018-06-03T15:47:25.968Z,4.30
2018-06-03T15:49:54.313Z,3.70
2018-06-03T15:52:22.639Z,3.77
2018-06-03T15:54:50.984Z,3.53
2018-06-03T15:57:19.317Z,3.03
2018-06-03T15:59:47.628Z,4.33
2018-06-03T16:02:15.973Z,3.80
2018-06-03T16:04:44.288Z,3.47
2018-06-03T16:07:12.671Z,3.83
2018-06-03T16:09:40.972Z,4.20
2018-06-03T16:12:09.326Z,3.23
2018-06-03T16:14:37.641Z,3.10
2018-06-03T16:17:05.991Z,4.00
2018-06-03T16:19:34.314Z,3.63
2018-06-03T16:22:02.667Z,3.40
2018-06-03T16:24:30.993Z,3.67
2018-06-03T16:26:59.333Z,3.53
2018-06-03T16:29:28.704Z,3.63
2018-06-03T16:31:57.038Z,3.57
2018-06-03T16:34:25.361Z,3.43
2018-06-03T16:36:53.697Z,3.53
2018-06-03T16:39:22.099Z,4.70
2018-06-03T16:41:50.435Z,3.80
2018-06-03T16:44:18.754Z,3.60
2018-06-03T16:46:47.081Z,3.27
2018-06-03T16:49:15.401Z,3.37
2018-06-03T16:51:43.737Z,3.03
2018-06-03T16:54:12.040Z,3.83
2018-06-03T16:56:40.371Z,3.60
2018-06-03T16:59:08.685Z,3.93
2018-06-03T17:01:37.010Z,3.83
2018-06-03T17:04:05.557Z,3.67
2018-06-03T17:06:33.865Z,3.50
2018-06-03T17:09:02.189Z,3.50
2018-06-03T17:11:30.532Z,3.57
2018-06-03T17:13:58.849Z,4.03
2018-06-03T17:16:27.157Z,3.60
2018-06-03T17:18:55.478Z,3.70
2018-06-03T17:21:23.782Z,4.13
2018-06-03T17:23:52.141Z,4.67
2018-06-03T17:26:20.466Z,4.10
2018-06-03T17:28:48.785Z,3.63
2018-06-03T17:31:17.092Z,3.53
2018-06-03T17:33:45.448Z,4.30
2018-06-03T17:36:13.845Z,3.63
2018-06-03T17:38:42.410Z,3.60
2018-06-03T17:41:10.738Z,3.60
2018-06-03T17:43:39.093Z,3.57
2018-06-03T17:46:07.517Z,3.50
2018-06-03T17:48:35.854Z,3.83
2018-06-03T17:51:04.265Z,3.60
2018-06-03T17:53:32.653Z,3.40
2018-06-03T17:56:00.957Z,4.53
2018-06-03T17:58:29.280Z,3.73
2018-06-03T18:00:57.716Z,5.00
2018-06-03T18:03:26.058Z,3.30
2018-06-03T18:05:54.369Z,4.37
2018-06-03T18:08:22.802Z,4.00
2018-06-03T18:10:51.244Z,3.77
2018-06-03T18:13:19.569Z,3.73
2018-06-03T18:15:47.933Z,3.67
2018-06-03T18:18:16.373Z,4.87
2018-06-03T18:20:44.705Z,4.27
2018-06-03T18:23:13.020Z,4.60
2018-06-03T18:25:41.369Z,4.47
2018-06-03T18:28:09.668Z,4.57
2018-06-03T18:30:37.986Z,4.87
2018-06-03T18:33:06.301Z,3.97
2018-06-03T18:35:34.657Z,4.30
2018-06-03T18:38:02.955Z,4.17
2018-06-03T18:40:31.285Z,3.77
2018-06-03T18:42:59.584Z,4.40
2018-06-03T18:45:27.916Z,4.50
2018-06-03T18:47:56.216Z,4.27
2018-06-03T18:50:24.540Z,4.10
2018-06-03T18:52:52.852Z,3.70
2018-06-03T18:55:21.193Z,4.60
2018-06-03T18:57:49.505Z,4.87
2018-06-03T19:00:17.828Z,4.60
2018-06-03T19:02:46.137Z,4.47
2018-06-03T19:05:14.470Z,4.27
2018-06-03T19:07:42.779Z,4.73
2018-06-03T19:10:11.133Z,4.40
2018-06-03T19:12:39.449Z,4.93
2018-06-03T19:15:07.793Z,5.07
2018-06-03T19:17:36.110Z,5.27
2018-06-03T19:20:04.489Z,4.43
2018-06-03T19:22:32.794Z,4.00
2018-06-03T19:25:01.117Z,4.20
2018-06-03T19:27:29.434Z,4.30
2018-06-03T19:29:57.758Z,4.60
2018-06-03T19:32:26.064Z,4.50
2018-06-03T19:34:54.392Z,3.90
2018-06-03T19:37:22.713Z,22.03
2018-06-03T19:39:51.167Z,4.20
2018-06-03T19:42:19.473Z,4.53
2018-06-03T19:44:47.808Z,4.07
2018-06-03T19:47:16.116Z,4.40
2018-06-03T19:49:44.437Z,4.70
2018-06-03T19:52:12.777Z,4.87
2018-06-03T19:54:41.084Z,4.50
2018-06-03T19:57:09.417Z,4.40
2018-06-03T19:59:37.785Z,6.17
2018-06-03T20:02:06.127Z,4.30
2018-06-03T20:04:34.438Z,4.27
2018-06-03T20:07:02.804Z,4.75
2018-06-03T20:09:30.882Z,5.83
2018-06-03T20:11:59.024Z,5.23
2018-06-03T20:14:27.440Z,4.42
2018-06-03T20:16:56.302Z,6.05
2018-06-03T20:19:24.596Z,4.45
2018-06-03T20:21:52.980Z,4.53
2018-06-03T20:24:21.258Z,4.90
2018-06-03T20:26:49.580Z,4.22
2018-06-03T20:29:17.885Z,4.80
2018-06-03T20:31:46.220Z,4.85
2018-06-03T20:34:14.549Z,5.10
2018-06-03T20:36:42.921Z,4.72
2018-06-03T20:39:11.270Z,4.55
2018-06-03T20:41:39.605Z,5.75
2018-06-03T20:44:07.906Z,4.45
2018-06-03T20:46:36.757Z,5.17
2018-06-03T20:49:05.100Z,4.85
2018-06-03T20:51:33.420Z,5.40
2018-06-03T20:54:01.725Z,4.30
2018-06-03T20:56:30.026Z,5.33
2018-06-03T20:58:58.356Z,4.80
2018-06-03T21:01:26.705Z,5.55
2018-06-03T21:03:55.061Z,5.00
2018-06-03T21:06:23.377Z,5.37
2018-06-03T21:08:51.722Z,5.08
2018-06-03T21:11:20.045Z,4.62
2018-06-03T21:13:48.413Z,5.15
2018-06-03T21:16:16.721Z,5.20
2018-06-03T21:18:45.256Z,3.70
2018-06-03T21:21:13.576Z,4.05
2018-06-03T21:23:41.901Z,4.65
2018-06-03T21:26:10.204Z,5.20
2018-06-03T21:28:38.536Z,5.55
2018-06-03T21:31:06.846Z,5.00
2018-06-03T21:33:35.176Z,4.50
2018-06-03T21:36:03.484Z,5.00
2018-06-03T21:38:31.805Z,4.72
2018-06-03T21:41:00.112Z,4.83
2018-06-03T21:43:28.445Z,4.95
2018-06-03T21:45:56.756Z,5.80
2018-06-03T21:48:25.077Z,5.72
2018-06-03T21:50:53.413Z,5.10
2018-06-03T21:53:21.726Z,4.92
2018-06-03T21:55:50.040Z,5.37
2018-06-03T21:58:18.373Z,5.60
2018-06-03T22:00:46.693Z,4.62
2018-06-03T22:03:15.009Z,4.10
2018-06-03T22:05:43.305Z,4.53
2018-06-03T22:08:11.622Z,5.15
2018-06-03T22:10:39.948Z,5.05
2018-06-03T22:13:08.306Z,5.50
2018-06-03T22:15:36.618Z,5.20
2018-06-03T22:18:05.188Z,4.62
2018-06-03T22:20:33.513Z,5.12
2018-06-03T22:23:01.829Z,4.70
2018-06-03T22:25:30.149Z,5.60
2018-06-03T22:27:58.454Z,6.45
2018-06-03T22:30:27.616Z,6.05
2018-06-03T22:32:55.925Z,5.92
2018-06-03T22:35:24.261Z,6.12
2018-06-03T22:37:52.660Z,5.35
2018-06-03T22:40:20.997Z,6.67
2018-06-03T22:42:49.312Z,4.90
2018-06-03T22:45:17.629Z,5.12
2018-06-03T22:47:45.998Z,5.10
2018-06-03T22:50:14.365Z,5.50
2018-06-03T22:52:42.649Z,6.80
2018-06-03T22:55:10.977Z,5.50
2018-06-03T22:57:46.492Z,5.47
2018-06-03T23:00:22.128Z,5.15
2018-06-03T23:02:55.953Z,5.70
2018-06-03T23:05:24.369Z,5.50
2018-06-03T23:07:52.897Z,5.60
2018-06-03T23:10:21.509Z,6.03
2018-06-03T23:12:49.830Z,5.08
2018-06-03T23:15:18.164Z,5.25
2018-06-03T23:17:46.472Z,5.75
2018-06-03T23:20:14.805Z,5.42
2018-06-03T23:22:43.125Z,5.17
2018-06-03T23:25:11.445Z,5.83
2018-06-03T23:27:39.822Z,5.50
2018-06-03T23:30:08.153Z,5.42
2018-06-03T23:32:36.461Z,6.62
2018-06-03T23:35:04.833Z,6.55
2018-06-03T23:37:33.149Z,6.87
2018-06-03T23:40:01.473Z,6.42
2018-06-03T23:42:29.814Z,5.20
2018-06-03T23:44:58.129Z,5.80
2018-06-03T23:47:26.452Z,5.28
2018-06-03T23:49:54.764Z,5.83
2018-06-03T23:52:23.100Z,5.28
2018-06-03T23:54:51.441Z,5.45
2018-06-03T23:57:19.773Z,5.25
2018-06-03T23:59:48.080Z,5.40
